sensor_id;sensor_type;location;lat;lon;timestamp;P1;durP1;ratioP1;P2;durP2;ratioP2
23113;SDS011;11726;50.122;8.832;2023-04-25T00:00:13;12.45;;;9.40;;
23113;SDS011;11726;50.122;8.832;2023-04-25T00:02:40;10.93;;;9.43;;
23113;SDS011;11726;50.122;8.832;2023-04-25T00:05:07;11.32;;;8.50;;
23113;SDS011;11726;50.122;8.832;2023-04-25T00:07:35;10.35;;;8.68;;
23113;SDS011;11726;50.122;8.832;2023-04-25T00:10:02;12.88;;;10.23;;
23113;SDS011;11726;50.122;8.832;2023-04-25T00:12:29;14.43;;;10.10;;
23113;SDS011;11726;50.122;8.832;2023-04-25T00:14:55;12.02;;;8.93;;
23113;SDS011;11726;50.122;8.832;2023-04-25T00:17:26;10.70;;;8.35;;
23113;SDS011;11726;50.122;8.832;2023-04-25T00:19:52;12.73;;;8.82;;
23113;SDS011;11726;50.122;8.832;2023-04-25T00:22:19;11.07;;;8.55;;
23113;SDS011;11726;50.122;8.832;2023-04-25T00:24:47;12.27;;;8.77;;
23113;SDS011;11726;50.122;8.832;2023-04-25T00:27:13;10.90;;;8.70;;
23113;SDS011;11726;50.122;8.832;2023-04-25T00:29:40;10.10;;;8.50;;
23113;SDS011;11726;50.122;8.832;2023-04-25T00:32:07;10.70;;;8.57;;
23113;SDS011;11726;50.122;8.832;2023-04-25T00:34:33;9.27;;;8.25;;
23113;SDS011;11726;50.122;8.832;2023-04-25T00:37:00;10.35;;;8.43;;
23113;SDS011;11726;50.122;8.832;2023-04-25T00:39:28;10.88;;;8.38;;
23113;SDS011;11726;50.122;8.832;2023-04-25T00:41:54;11.10;;;8.32;;
23113;SDS011;11726;50.122;8.832;2023-04-25T00:44:21;10.77;;;7.20;;
23113;SDS011;11726;50.122;8.832;2023-04-25T00:46:48;10.20;;;7.07;;
23113;SDS011;11726;50.122;8.832;2023-04-25T00:49:16;11.93;;;8.13;;
23113;SDS011;11726;50.122;8.832;2023-04-25T00:51:43;11.80;;;7.78;;
23113;SDS011;11726;50.122;8.832;2023-04-25T00:54:12;9.63;;;7.85;;
23113;SDS011;11726;50.122;8.832;2023-04-25T00:56:40;10.02;;;7.72;;
23113;SDS011;11726;50.122;8.832;2023-04-25T00:59:07;10.43;;;8.10;;
23113;SDS011;11726;50.122;8.832;2023-04-25T01:01:35;12.18;;;8.90;;
23113;SDS011;11726;50.122;8.832;2023-04-25T01:04:02;12.32;;;9.00;;
23113;SDS011;11726;50.122;8.832;2023-04-25T01:06:29;9.75;;;8.70;;
23113;SDS011;11726;50.122;8.832;2023-04-25T01:08:56;10.65;;;8.15;;
23113;SDS011;11726;50.122;8.832;2023-04-25T01:11:24;10.32;;;8.15;;
23113;SDS011;11726;50.122;8.832;2023-04-25T01:13:51;8.70;;;6.57;;
23113;SDS011;11726;50.122;8.832;2023-04-25T01:16:18;9.57;;;7.38;;
23113;SDS011;11726;50.122;8.832;2023-04-25T01:18:45;12.60;;;8.20;;
23113;SDS011;11726;50.122;8.832;2023-04-25T01:21:12;9.07;;;7.65;;
23113;SDS011;11726;50.122;8.832;2023-04-25T01:23:39;9.05;;;7.28;;
23113;SDS011;11726;50.122;8.832;2023-04-25T01:26:08;11.77;;;8.43;;
23113;SDS011;11726;50.122;8.832;2023-04-25T01:28:36;13.02;;;8.48;;
23113;SDS011;11726;50.122;8.832;2023-04-25T01:31:03;12.48;;;8.88;;
23113;SDS011;11726;50.122;8.832;2023-04-25T01:33:31;10.55;;;8.05;;
23113;SDS011;11726;50.122;8.832;2023-04-25T01:35:58;9.77;;;7.75;;
23113;SDS011;11726;50.122;8.832;2023-04-25T01:38:26;13.25;;;8.60;;
23113;SDS011;11726;50.122;8.832;2023-04-25T01:40:52;11.13;;;8.77;;
23113;SDS011;11726;50.122;8.832;2023-04-25T01:43:20;10.93;;;8.68;;
23113;SDS011;11726;50.122;8.832;2023-04-25T01:45:47;10.50;;;8.30;;
23113;SDS011;11726;50.122;8.832;2023-04-25T01:48:15;12.70;;;9.10;;
23113;SDS011;11726;50.122;8.832;2023-04-25T01:50:42;20.23;;;10.15;;
23113;SDS011;11726;50.122;8.832;2023-04-25T01:53:09;12.52;;;9.05;;
23113;SDS011;11726;50.122;8.832;2023-04-25T01:55:38;12.80;;;9.27;;
23113;SDS011;11726;50.122;8.832;2023-04-25T01:58:05;14.48;;;9.60;;
23113;SDS011;11726;50.122;8.832;2023-04-25T02:00:35;14.90;;;10.05;;
23113;SDS011;11726;50.122;8.832;2023-04-25T02:03:05;12.65;;;8.45;;
23113;SDS011;11726;50.122;8.832;2023-04-25T02:05:35;12.93;;;9.13;;
23113;SDS011;11726;50.122;8.832;2023-04-25T02:08:04;10.82;;;9.20;;
23113;SDS011;11726;50.122;8.832;2023-04-25T02:10:31;9.63;;;8.25;;
23113;SDS011;11726;50.122;8.832;2023-04-25T02:12:59;10.73;;;8.82;;
23113;SDS011;11726;50.122;8.832;2023-04-25T02:15:25;14.32;;;9.93;;
23113;SDS011;11726;50.122;8.832;2023-04-25T02:17:54;12.85;;;10.02;;
23113;SDS011;11726;50.122;8.832;2023-04-25T02:20:21;11.77;;;9.70;;
23113;SDS011;11726;50.122;8.832;2023-04-25T02:22:49;11.23;;;9.10;;
23113;SDS011;11726;50.122;8.832;2023-04-25T02:25:16;10.10;;;8.80;;
23113;SDS011;11726;50.122;8.832;2023-04-25T02:27:44;12.48;;;10.00;;
23113;SDS011;11726;50.122;8.832;2023-04-25T02:30:10;14.02;;;9.15;;
23113;SDS011;11726;50.122;8.832;2023-04-25T02:32:38;11.85;;;9.68;;
23113;SDS011;11726;50.122;8.832;2023-04-25T02:35:05;10.35;;;8.50;;
23113;SDS011;11726;50.122;8.832;2023-04-25T02:37:33;12.20;;;9.27;;
23113;SDS011;11726;50.122;8.832;2023-04-25T02:40:00;12.65;;;9.13;;
23113;SDS011;11726;50.122;8.832;2023-04-25T02:42:27;14.75;;;9.38;;
23113;SDS011;11726;50.122;8.832;2023-04-25T02:44:54;12.35;;;8.75;;
23113;SDS011;11726;50.122;8.832;2023-04-25T02:47:20;11.18;;;8.93;;
23113;SDS011;11726;50.122;8.832;2023-04-25T02:49:47;13.23;;;9.68;;
23113;SDS011;11726;50.122;8.832;2023-04-25T02:52:14;10.70;;;9.00;;
23113;SDS011;11726;50.122;8.832;2023-04-25T02:54:41;12.77;;;8.80;;
23113;SDS011;11726;50.122;8.832;2023-04-25T02:57:07;11.02;;;9.10;;
23113;SDS011;11726;50.122;8.832;2023-04-25T02:59:34;12.05;;;9.02;;
23113;SDS011;11726;50.122;8.832;2023-04-25T03:02:01;11.70;;;9.50;;
23113;SDS011;11726;50.122;8.832;2023-04-25T03:04:27;10.25;;;8.68;;
23113;SDS011;11726;50.122;8.832;2023-04-25T03:06:54;12.55;;;10.13;;
23113;SDS011;11726;50.122;8.832;2023-04-25T03:09:21;11.05;;;8.50;;
23113;SDS011;11726;50.122;8.832;2023-04-25T03:11:47;12.93;;;9.85;;
23113;SDS011;11726;50.122;8.832;2023-04-25T03:14:14;14.75;;;8.90;;
23113;SDS011;11726;50.122;8.832;2023-04-25T03:16:41;14.05;;;9.32;;
23113;SDS011;11726;50.122;8.832;2023-04-25T03:19:07;14.50;;;9.60;;
23113;SDS011;11726;50.122;8.832;2023-04-25T03:21:34;12.90;;;9.63;;
23113;SDS011;11726;50.122;8.832;2023-04-25T03:24:02;12.68;;;9.20;;
23113;SDS011;11726;50.122;8.832;2023-04-25T03:26:30;12.45;;;10.30;;
23113;SDS011;11726;50.122;8.832;2023-04-25T03:28:57;14.27;;;9.48;;
23113;SDS011;11726;50.122;8.832;2023-04-25T03:31:23;12.55;;;9.30;;
23113;SDS011;11726;50.122;8.832;2023-04-25T03:33:50;11.07;;;9.10;;
23113;SDS011;11726;50.122;8.832;2023-04-25T03:36:17;13.20;;;10.15;;
23113;SDS011;11726;50.122;8.832;2023-04-25T03:38:44;12.52;;;8.82;;
23113;SDS011;11726;50.122;8.832;2023-04-25T03:41:11;12.25;;;10.02;;
23113;SDS011;11726;50.122;8.832;2023-04-25T03:43:37;12.35;;;9.75;;
23113;SDS011;11726;50.122;8.832;2023-04-25T03:46:04;14.52;;;9.55;;
23113;SDS011;11726;50.122;8.832;2023-04-25T03:48:30;13.80;;;10.32;;
23113;SDS011;11726;50.122;8.832;2023-04-25T03:50:57;14.15;;;10.30;;
23113;SDS011;11726;50.122;8.832;2023-04-25T03:53:24;15.23;;;10.63;;
23113;SDS011;11726;50.122;8.832;2023-04-25T03:55:51;16.83;;;10.80;;
23113;SDS011;11726;50.122;8.832;2023-04-25T03:58:18;14.60;;;10.23;;
23113;SDS011;11726;50.122;8.832;2023-04-25T04:00:44;12.88;;;9.07;;
23113;SDS011;11726;50.122;8.832;2023-04-25T04:03:11;15.93;;;9.55;;
23113;SDS011;11726;50.122;8.832;2023-04-25T04:05:38;14.30;;;8.40;;
23113;SDS011;11726;50.122;8.832;2023-04-25T04:08:06;14.18;;;7.97;;
23113;SDS011;11726;50.122;8.832;2023-04-25T04:10:33;14.30;;;8.25;;
23113;SDS011;11726;50.122;8.832;2023-04-25T04:12:59;16.45;;;8.82;;
23113;SDS011;11726;50.122;8.832;2023-04-25T04:15:26;14.85;;;8.30;;
23113;SDS011;11726;50.122;8.832;2023-04-25T04:17:53;16.10;;;8.80;;
23113;SDS011;11726;50.122;8.832;2023-04-25T04:20:20;18.67;;;9.30;;
23113;SDS011;11726;50.122;8.832;2023-04-25T04:22:47;16.00;;;8.88;;
23113;SDS011;11726;50.122;8.832;2023-04-25T04:25:14;17.13;;;8.45;;
23113;SDS011;11726;50.122;8.832;2023-04-25T04:27:40;17.17;;;9.85;;
23113;SDS011;11726;50.122;8.832;2023-04-25T04:30:07;17.08;;;9.73;;
23113;SDS011;11726;50.122;8.832;2023-04-25T04:32:34;17.58;;;10.07;;
23113;SDS011;11726;50.122;8.832;2023-04-25T04:35:04;21.13;;;10.50;;
23113;SDS011;11726;50.122;8.832;2023-04-25T04:37:32;17.98;;;9.98;;
23113;SDS011;11726;50.122;8.832;2023-04-25T04:39:59;18.50;;;10.57;;
23113;SDS011;11726;50.122;8.832;2023-04-25T04:42:31;19.33;;;9.93;;
23113;SDS011;11726;50.122;8.832;2023-04-25T04:44:57;20.27;;;9.73;;
23113;SDS011;11726;50.122;8.832;2023-04-25T04:47:24;19.65;;;10.02;;
23113;SDS011;11726;50.122;8.832;2023-04-25T04:49:52;20.02;;;10.00;;
23113;SDS011;11726;50.122;8.832;2023-04-25T04:52:18;15.93;;;9.63;;
23113;SDS011;11726;50.122;8.832;2023-04-25T04:54:45;16.73;;;9.38;;
23113;SDS011;11726;50.122;8.832;2023-04-25T04:57:11;14.68;;;9.73;;
23113;SDS011;11726;50.122;8.832;2023-04-25T04:59:38;22.27;;;9.85;;
23113;SDS011;11726;50.122;8.832;2023-04-25T05:02:04;17.55;;;8.90;;
23113;SDS011;11726;50.122;8.832;2023-04-25T05:04:31;20.27;;;9.65;;
23113;SDS011;11726;50.122;8.832;2023-04-25T05:06:58;18.08;;;9.40;;
23113;SDS011;11726;50.122;8.832;2023-04-25T05:09:24;17.08;;;9.50;;
23113;SDS011;11726;50.122;8.832;2023-04-25T05:11:51;14.75;;;8.55;;
23113;SDS011;11726;50.122;8.832;2023-04-25T05:14:18;16.27;;;8.98;;
23113;SDS011;11726;50.122;8.832;2023-04-25T05:16:44;16.45;;;9.05;;
23113;SDS011;11726;50.122;8.832;2023-04-25T05:19:11;16.75;;;9.35;;
23113;SDS011;11726;50.122;8.832;2023-04-25T05:21:38;17.55;;;8.63;;
23113;SDS011;11726;50.122;8.832;2023-04-25T05:24:04;14.60;;;8.48;;
23113;SDS011;11726;50.122;8.832;2023-04-25T05:26:31;13.98;;;7.95;;
23113;SDS011;11726;50.122;8.832;2023-04-25T05:28:58;17.08;;;8.55;;
23113;SDS011;11726;50.122;8.832;2023-04-25T05:31:24;18.90;;;8.85;;
23113;SDS011;11726;50.122;8.832;2023-04-25T05:33:51;13.93;;;8.25;;
23113;SDS011;11726;50.122;8.832;2023-04-25T05:36:18;13.90;;;7.70;;
23113;SDS011;11726;50.122;8.832;2023-04-25T05:38:45;16.05;;;8.32;;
23113;SDS011;11726;50.122;8.832;2023-04-25T05:41:12;15.98;;;8.23;;
23113;SDS011;11726;50.122;8.832;2023-04-25T05:43:38;17.45;;;8.60;;
23113;SDS011;11726;50.122;8.832;2023-04-25T05:46:11;13.60;;;7.90;;
23113;SDS011;11726;50.122;8.832;2023-04-25T05:48:37;16.52;;;8.38;;
23113;SDS011;11726;50.122;8.832;2023-04-25T05:51:05;15.75;;;8.10;;
23113;SDS011;11726;50.122;8.832;2023-04-25T05:53:32;14.40;;;7.72;;
23113;SDS011;11726;50.122;8.832;2023-04-25T05:55:59;12.60;;;7.95;;
23113;SDS011;11726;50.122;8.832;2023-04-25T05:58:25;14.13;;;7.78;;
23113;SDS011;11726;50.122;8.832;2023-04-25T06:00:52;15.40;;;7.25;;
23113;SDS011;11726;50.122;8.832;2023-04-25T06:03:18;9.70;;;6.40;;
23113;SDS011;11726;50.122;8.832;2023-04-25T06:05:46;8.73;;;5.78;;
23113;SDS011;11726;50.122;8.832;2023-04-25T06:08:13;9.80;;;5.82;;
23113;SDS011;11726;50.122;8.832;2023-04-25T06:10:40;11.23;;;5.60;;
23113;SDS011;11726;50.122;8.832;2023-04-25T06:13:06;9.57;;;5.43;;
23113;SDS011;11726;50.122;8.832;2023-04-25T06:15:33;11.38;;;5.80;;
23113;SDS011;11726;50.122;8.832;2023-04-25T06:18:00;12.85;;;5.70;;
23113;SDS011;11726;50.122;8.832;2023-04-25T06:20:26;14.95;;;5.95;;
23113;SDS011;11726;50.122;8.832;2023-04-25T06:22:53;10.07;;;5.47;;
23113;SDS011;11726;50.122;8.832;2023-04-25T06:25:20;10.23;;;5.22;;
23113;SDS011;11726;50.122;8.832;2023-04-25T06:27:47;11.57;;;5.45;;
23113;SDS011;11726;50.122;8.832;2023-04-25T06:30:13;10.90;;;5.47;;
23113;SDS011;11726;50.122;8.832;2023-04-25T06:32:41;9.05;;;5.20;;
23113;SDS011;11726;50.122;8.832;2023-04-25T06:35:07;9.30;;;4.78;;
23113;SDS011;11726;50.122;8.832;2023-04-25T06:37:34;10.52;;;4.97;;
23113;SDS011;11726;50.122;8.832;2023-04-25T06:40:01;11.10;;;5.55;;
23113;SDS011;11726;50.122;8.832;2023-04-25T06:42:28;8.65;;;4.78;;
23113;SDS011;11726;50.122;8.832;2023-04-25T06:44:55;7.80;;;4.05;;
23113;SDS011;11726;50.122;8.832;2023-04-25T06:47:21;8.50;;;4.13;;
23113;SDS011;11726;50.122;8.832;2023-04-25T06:49:49;7.55;;;4.30;;
23113;SDS011;11726;50.122;8.832;2023-04-25T06:52:15;9.23;;;4.95;;
23113;SDS011;11726;50.122;8.832;2023-04-25T06:54:44;10.90;;;4.47;;
23113;SDS011;11726;50.122;8.832;2023-04-25T06:57:11;7.85;;;4.40;;
23113;SDS011;11726;50.122;8.832;2023-04-25T06:59:37;11.30;;;4.60;;
23113;SDS011;11726;50.122;8.832;2023-04-25T07:02:04;10.65;;;5.45;;
23113;SDS011;11726;50.122;8.832;2023-04-25T07:04:32;9.50;;;4.85;;
23113;SDS011;11726;50.122;8.832;2023-04-25T07:06:59;10.63;;;4.90;;
23113;SDS011;11726;50.122;8.832;2023-04-25T07:09:28;7.97;;;4.78;;
23113;SDS011;11726;50.122;8.832;2023-04-25T07:11:55;6.78;;;4.50;;
23113;SDS011;11726;50.122;8.832;2023-04-25T07:14:22;9.88;;;4.60;;
23113;SDS011;11726;50.122;8.832;2023-04-25T07:16:49;13.35;;;4.63;;
23113;SDS011;11726;50.122;8.832;2023-04-25T07:19:16;9.80;;;4.13;;
23113;SDS011;11726;50.122;8.832;2023-04-25T07:21:42;8.60;;;4.25;;
23113;SDS011;11726;50.122;8.832;2023-04-25T07:24:09;8.27;;;4.10;;
23113;SDS011;11726;50.122;8.832;2023-04-25T07:26:36;8.75;;;4.45;;
23113;SDS011;11726;50.122;8.832;2023-04-25T07:29:03;8.10;;;4.40;;
23113;SDS011;11726;50.122;8.832;2023-04-25T07:31:30;9.40;;;5.80;;
23113;SDS011;11726;50.122;8.832;2023-04-25T07:33:56;9.18;;;4.28;;
23113;SDS011;11726;50.122;8.832;2023-04-25T07:36:26;12.80;;;4.45;;
23113;SDS011;11726;50.122;8.832;2023-04-25T07:38:53;10.63;;;4.70;;
23113;SDS011;11726;50.122;8.832;2023-04-25T07:41:19;7.72;;;4.43;;
23113;SDS011;11726;50.122;8.832;2023-04-25T07:43:46;7.93;;;4.25;;
23113;SDS011;11726;50.122;8.832;2023-04-25T07:46:12;7.40;;;4.43;;
23113;SDS011;11726;50.122;8.832;2023-04-25T07:48:39;8.82;;;4.50;;
23113;SDS011;11726;50.122;8.832;2023-04-25T07:51:06;8.13;;;4.07;;
23113;SDS011;11726;50.122;8.832;2023-04-25T07:53:33;8.30;;;3.90;;
23113;SDS011;11726;50.122;8.832;2023-04-25T07:56:00;9.45;;;4.50;;
23113;SDS011;11726;50.122;8.832;2023-04-25T07:58:27;7.07;;;4.00;;
23113;SDS011;11726;50.122;8.832;2023-04-25T08:00:54;5.88;;;4.15;;
23113;SDS011;11726;50.122;8.832;2023-04-25T08:03:20;8.43;;;4.43;;
23113;SDS011;11726;50.122;8.832;2023-04-25T08:05:47;6.32;;;3.83;;
23113;SDS011;11726;50.122;8.832;2023-04-25T08:08:14;6.80;;;4.30;;
23113;SDS011;11726;50.122;8.832;2023-04-25T08:10:41;8.07;;;4.13;;
23113;SDS011;11726;50.122;8.832;2023-04-25T08:13:08;9.52;;;4.30;;
23113;SDS011;11726;50.122;8.832;2023-04-25T08:15:34;6.65;;;4.18;;
23113;SDS011;11726;50.122;8.832;2023-04-25T08:18:01;10.55;;;4.00;;
23113;SDS011;11726;50.122;8.832;2023-04-25T08:20:28;7.65;;;3.70;;
23113;SDS011;11726;50.122;8.832;2023-04-25T08:22:54;9.57;;;4.15;;
23113;SDS011;11726;50.122;8.832;2023-04-25T08:25:21;7.47;;;3.97;;
23113;SDS011;11726;50.122;8.832;2023-04-25T08:27:48;11.57;;;4.38;;
23113;SDS011;11726;50.122;8.832;2023-04-25T08:30:14;9.13;;;4.10;;
23113;SDS011;11726;50.122;8.832;2023-04-25T08:32:41;8.02;;;4.18;;
23113;SDS011;11726;50.122;8.832;2023-04-25T08:35:08;8.45;;;3.95;;
23113;SDS011;11726;50.122;8.832;2023-04-25T08:37:35;10.52;;;4.10;;
23113;SDS011;11726;50.122;8.832;2023-04-25T08:40:03;6.93;;;4.30;;
23113;SDS011;11726;50.122;8.832;2023-04-25T08:42:33;8.32;;;4.70;;
23113;SDS011;11726;50.122;8.832;2023-04-25T08:45:01;7.15;;;3.72;;
23113;SDS011;11726;50.122;8.832;2023-04-25T08:47:32;8.25;;;4.30;;
23113;SDS011;11726;50.122;8.832;2023-04-25T08:50:02;8.55;;;4.35;;
23113;SDS011;11726;50.122;8.832;2023-04-25T08:52:30;6.95;;;4.57;;
23113;SDS011;11726;50.122;8.832;2023-04-25T08:55:01;9.93;;;4.20;;
23113;SDS011;11726;50.122;8.832;2023-04-25T08:57:29;9.13;;;4.40;;
23113;SDS011;11726;50.122;8.832;2023-04-25T08:59:58;4.93;;;3.95;;
23113;SDS011;11726;50.122;8.832;2023-04-25T09:02:27;6.82;;;3.47;;
23113;SDS011;11726;50.122;8.832;2023-04-25T09:04:54;6.07;;;3.45;;
23113;SDS011;11726;50.122;8.832;2023-04-25T09:07:23;5.72;;;4.20;;
23113;SDS011;11726;50.122;8.832;2023-04-25T09:09:57;8.68;;;4.50;;
23113;SDS011;11726;50.122;8.832;2023-04-25T09:12:25;7.40;;;4.50;;
23113;SDS011;11726;50.122;8.832;2023-04-25T09:17:34;6.57;;;3.58;;
23113;SDS011;11726;50.122;8.832;2023-04-25T09:20:07;6.15;;;3.60;;
23113;SDS011;11726;50.122;8.832;2023-04-25T09:22:41;8.57;;;3.97;;
23113;SDS011;11726;50.122;8.832;2023-04-25T09:25:09;7.43;;;3.35;;
23113;SDS011;11726;50.122;8.832;2023-04-25T09:27:48;7.65;;;3.83;;
23113;SDS011;11726;50.122;8.832;2023-04-25T09:30:17;6.18;;;3.83;;
23113;SDS011;11726;50.122;8.832;2023-04-25T09:32:44;7.45;;;4.13;;
23113;SDS011;11726;50.122;8.832;2023-04-25T09:35:11;5.60;;;3.80;;
23113;SDS011;11726;50.122;8.832;2023-04-25T09:37:51;6.10;;;3.67;;
23113;SDS011;11726;50.122;8.832;2023-04-25T09:40:18;6.82;;;3.80;;
23113;SDS011;11726;50.122;8.832;2023-04-25T09:42:44;6.75;;;4.03;;
23113;SDS011;11726;50.122;8.832;2023-04-25T09:45:12;8.18;;;3.92;;
23113;SDS011;11726;50.122;8.832;2023-04-25T09:47:41;8.05;;;4.15;;
23113;SDS011;11726;50.122;8.832;2023-04-25T09:50:14;7.55;;;4.45;;
23113;SDS011;11726;50.122;8.832;2023-04-25T09:52:42;6.88;;;4.35;;
23113;SDS011;11726;50.122;8.832;2023-04-25T09:55:09;8.23;;;4.70;;
23113;SDS011;11726;50.122;8.832;2023-04-25T09:57:36;6.50;;;4.28;;
23113;SDS011;11726;50.122;8.832;2023-04-25T10:00:06;5.22;;;4.25;;
23113;SDS011;11726;50.122;8.832;2023-04-25T10:02:37;7.75;;;4.00;;
23113;SDS011;11726;50.122;8.832;2023-04-25T10:05:06;6.18;;;3.92;;
23113;SDS011;11726;50.122;8.832;2023-04-25T10:07:34;7.18;;;4.18;;
23113;SDS011;11726;50.122;8.832;2023-04-25T10:10:04;7.22;;;4.32;;
23113;SDS011;11726;50.122;8.832;2023-04-25T10:12:32;6.20;;;4.43;;
23113;SDS011;11726;50.122;8.832;2023-04-25T10:14:59;5.78;;;3.75;;
23113;SDS011;11726;50.122;8.832;2023-04-25T10:17:26;5.60;;;4.10;;
23113;SDS011;11726;50.122;8.832;2023-04-25T10:19:56;8.60;;;4.72;;
23113;SDS011;11726;50.122;8.832;2023-04-25T10:22:34;9.35;;;4.82;;
23113;SDS011;11726;50.122;8.832;2023-04-25T10:25:04;6.75;;;4.57;;
23113;SDS011;11726;50.122;8.832;2023-04-25T10:27:32;7.85;;;4.50;;
23113;SDS011;11726;50.122;8.832;2023-04-25T10:30:00;8.77;;;4.40;;
23113;SDS011;11726;50.122;8.832;2023-04-25T10:32:44;5.90;;;4.18;;
23113;SDS011;11726;50.122;8.832;2023-04-25T10:35:17;7.13;;;4.30;;
23113;SDS011;11726;50.122;8.832;2023-04-25T10:37:58;6.22;;;4.40;;
23113;SDS011;11726;50.122;8.832;2023-04-25T10:40:35;8.32;;;4.80;;
23113;SDS011;11726;50.122;8.832;2023-04-25T10:46:01;8.18;;;5.20;;
23113;SDS011;11726;50.122;8.832;2023-04-25T10:48:38;7.18;;;4.65;;
23113;SDS011;11726;50.122;8.832;2023-04-25T10:51:21;11.13;;;5.43;;
23113;SDS011;11726;50.122;8.832;2023-04-25T10:56:22;6.95;;;4.75;;
23113;SDS011;11726;50.122;8.832;2023-04-25T10:58:51;6.78;;;4.22;;
23113;SDS011;11726;50.122;8.832;2023-04-25T11:01:28;5.05;;;4.20;;
23113;SDS011;11726;50.122;8.832;2023-04-25T11:04:04;6.90;;;4.07;;
23113;SDS011;11726;50.122;8.832;2023-04-25T11:06:34;7.90;;;4.32;;
23113;SDS011;11726;50.122;8.832;2023-04-25T11:09:35;6.20;;;3.97;;
23113;SDS011;11726;50.122;8.832;2023-04-25T11:12:04;4.65;;;3.67;;
23113;SDS011;11726;50.122;8.832;2023-04-25T11:14:33;6.45;;;3.53;;
23113;SDS011;11726;50.122;8.832;2023-04-25T11:17:00;5.55;;;3.80;;
23113;SDS011;11726;50.122;8.832;2023-04-25T11:19:28;6.75;;;3.67;;
23113;SDS011;11726;50.122;8.832;2023-04-25T11:21:56;6.90;;;3.97;;
23113;SDS011;11726;50.122;8.832;2023-04-25T11:24:29;5.68;;;3.90;;
23113;SDS011;11726;50.122;8.832;2023-04-25T11:27:00;5.25;;;3.72;;
23113;SDS011;11726;50.122;8.832;2023-04-25T11:29:30;5.60;;;3.47;;
23113;SDS011;11726;50.122;8.832;2023-04-25T11:31:59;5.45;;;3.30;;
23113;SDS011;11726;50.122;8.832;2023-04-25T11:34:27;4.22;;;3.33;;
23113;SDS011;11726;50.122;8.832;2023-04-25T11:36:59;6.38;;;3.67;;
23113;SDS011;11726;50.122;8.832;2023-04-25T11:39:27;9.32;;;3.22;;
23113;SDS011;11726;50.122;8.832;2023-04-25T11:41:55;7.43;;;3.38;;
23113;SDS011;11726;50.122;8.832;2023-04-25T11:44:22;8.10;;;3.30;;
23113;SDS011;11726;50.122;8.832;2023-04-25T11:46:49;6.13;;;3.25;;
23113;SDS011;11726;50.122;8.832;2023-04-25T11:49:16;3.85;;;2.80;;
23113;SDS011;11726;50.122;8.832;2023-04-25T11:51:44;5.38;;;2.88;;
23113;SDS011;11726;50.122;8.832;2023-04-25T11:54:13;5.07;;;2.50;;
23113;SDS011;11726;50.122;8.832;2023-04-25T11:56:41;5.20;;;2.72;;
23113;SDS011;11726;50.122;8.832;2023-04-25T11:59:09;4.70;;;2.42;;
23113;SDS011;11726;50.122;8.832;2023-04-25T12:01:38;5.47;;;3.08;;
23113;SDS011;11726;50.122;8.832;2023-04-25T12:04:10;7.88;;;2.85;;
23113;SDS011;11726;50.122;8.832;2023-04-25T12:06:52;5.25;;;2.50;;
23113;SDS011;11726;50.122;8.832;2023-04-25T12:09:20;6.85;;;2.90;;
23113;SDS011;11726;50.122;8.832;2023-04-25T12:11:55;6.45;;;3.00;;
23113;SDS011;11726;50.122;8.832;2023-04-25T12:14:32;7.97;;;3.53;;
23113;SDS011;11726;50.122;8.832;2023-04-25T12:17:02;7.03;;;3.35;;
23113;SDS011;11726;50.122;8.832;2023-04-25T12:19:33;6.78;;;3.15;;
23113;SDS011;11726;50.122;8.832;2023-04-25T12:22:01;7.40;;;3.10;;
23113;SDS011;11726;50.122;8.832;2023-04-25T12:24:29;5.57;;;3.33;;
23113;SDS011;11726;50.122;8.832;2023-04-25T12:27:05;5.93;;;3.50;;
23113;SDS011;11726;50.122;8.832;2023-04-25T12:29:34;7.93;;;3.90;;
23113;SDS011;11726;50.122;8.832;2023-04-25T12:32:15;5.78;;;3.03;;
23113;SDS011;11726;50.122;8.832;2023-04-25T12:34:42;8.48;;;3.63;;
23113;SDS011;11726;50.122;8.832;2023-04-25T12:37:08;7.30;;;2.97;;
23113;SDS011;11726;50.122;8.832;2023-04-25T12:39:35;7.05;;;2.83;;
23113;SDS011;11726;50.122;8.832;2023-04-25T12:42:02;4.80;;;2.50;;
23113;SDS011;11726;50.122;8.832;2023-04-25T12:44:31;5.60;;;3.10;;
23113;SDS011;11726;50.122;8.832;2023-04-25T12:46:57;8.18;;;3.35;;
23113;SDS011;11726;50.122;8.832;2023-04-25T12:49:26;6.70;;;3.40;;
23113;SDS011;11726;50.122;8.832;2023-04-25T12:51:52;6.50;;;3.50;;
23113;SDS011;11726;50.122;8.832;2023-04-25T12:54:19;6.10;;;3.10;;
23113;SDS011;11726;50.122;8.832;2023-04-25T12:56:46;6.30;;;3.20;;
23113;SDS011;11726;50.122;8.832;2023-04-25T12:59:13;8.20;;;3.38;;
23113;SDS011;11726;50.122;8.832;2023-04-25T13:01:40;8.00;;;3.00;;
23113;SDS011;11726;50.122;8.832;2023-04-25T13:04:06;6.38;;;3.20;;
23113;SDS011;11726;50.122;8.832;2023-04-25T13:06:33;8.65;;;3.25;;
23113;SDS011;11726;50.122;8.832;2023-04-25T13:09:00;8.23;;;3.10;;
23113;SDS011;11726;50.122;8.832;2023-04-25T13:11:27;11.32;;;3.45;;
23113;SDS011;11726;50.122;8.832;2023-04-25T13:13:59;4.28;;;2.65;;
23113;SDS011;11726;50.122;8.832;2023-04-25T13:16:26;7.28;;;3.00;;
23113;SDS011;11726;50.122;8.832;2023-04-25T13:18:53;7.75;;;3.05;;
23113;SDS011;11726;50.122;8.832;2023-04-25T13:21:20;7.50;;;2.88;;
23113;SDS011;11726;50.122;8.832;2023-04-25T13:23:46;6.40;;;3.03;;
23113;SDS011;11726;50.122;8.832;2023-04-25T13:26:13;11.02;;;3.17;;
23113;SDS011;11726;50.122;8.832;2023-04-25T13:28:40;7.40;;;3.00;;
23113;SDS011;11726;50.122;8.832;2023-04-25T13:31:10;10.00;;;3.30;;
23113;SDS011;11726;50.122;8.832;2023-04-25T13:33:36;6.63;;;3.30;;
23113;SDS011;11726;50.122;8.832;2023-04-25T13:36:03;7.30;;;3.20;;
23113;SDS011;11726;50.122;8.832;2023-04-25T13:38:30;6.07;;;3.03;;
23113;SDS011;11726;50.122;8.832;2023-04-25T13:40:57;10.68;;;3.38;;
23113;SDS011;11726;50.122;8.832;2023-04-25T13:43:23;7.38;;;3.53;;
23113;SDS011;11726;50.122;8.832;2023-04-25T13:45:50;6.85;;;3.15;;
23113;SDS011;11726;50.122;8.832;2023-04-25T13:48:18;7.45;;;3.20;;
23113;SDS011;11726;50.122;8.832;2023-04-25T13:50:46;7.18;;;3.13;;
23113;SDS011;11726;50.122;8.832;2023-04-25T13:53:12;7.18;;;3.60;;
23113;SDS011;11726;50.122;8.832;2023-04-25T13:55:39;4.88;;;2.90;;
23113;SDS011;11726;50.122;8.832;2023-04-25T13:58:06;7.53;;;3.10;;
23113;SDS011;11726;50.122;8.832;2023-04-25T14:00:36;6.10;;;2.65;;
23113;SDS011;11726;50.122;8.832;2023-04-25T14:03:09;8.55;;;3.08;;
23113;SDS011;11726;50.122;8.832;2023-04-25T14:05:36;6.05;;;2.78;;
23113;SDS011;11726;50.122;8.832;2023-04-25T14:08:07;5.82;;;2.63;;
23113;SDS011;11726;50.122;8.832;2023-04-25T14:10:35;9.07;;;2.80;;
23113;SDS011;11726;50.122;8.832;2023-04-25T14:13:02;5.97;;;2.95;;
23113;SDS011;11726;50.122;8.832;2023-04-25T14:15:30;7.45;;;2.72;;
23113;SDS011;11726;50.122;8.832;2023-04-25T14:17:58;9.05;;;3.08;;
23113;SDS011;11726;50.122;8.832;2023-04-25T14:20:25;8.05;;;2.92;;
23113;SDS011;11726;50.122;8.832;2023-04-25T14:22:52;8.65;;;2.78;;
23113;SDS011;11726;50.122;8.832;2023-04-25T14:25:20;9.93;;;2.85;;
23113;SDS011;11726;50.122;8.832;2023-04-25T14:27:47;8.80;;;2.88;;
23113;SDS011;11726;50.122;8.832;2023-04-25T14:30:16;6.95;;;2.67;;
23113;SDS011;11726;50.122;8.832;2023-04-25T14:32:44;7.15;;;3.08;;
23113;SDS011;11726;50.122;8.832;2023-04-25T14:35:11;7.28;;;2.67;;
23113;SDS011;11726;50.122;8.832;2023-04-25T14:37:39;6.97;;;2.72;;
23113;SDS011;11726;50.122;8.832;2023-04-25T14:40:06;4.15;;;2.58;;
23113;SDS011;11726;50.122;8.832;2023-04-25T14:42:38;6.97;;;2.47;;
23113;SDS011;11726;50.122;8.832;2023-04-25T14:45:08;6.03;;;2.40;;
23113;SDS011;11726;50.122;8.832;2023-04-25T14:47:38;5.55;;;1.90;;
23113;SDS011;11726;50.122;8.832;2023-04-25T14:50:05;6.00;;;1.90;;
23113;SDS011;11726;50.122;8.832;2023-04-25T14:52:33;6.30;;;2.08;;